Jacarei, Brazil
Current Conditions -  °F | °C
As of 4:00 AM on Thursday 27 Nov 2014 (Local Time) from SBSJ Reporting Station
Scattered Clouds Scattered Clouds  
Wind Chill: 68°   Ceiling: Unl
Heat Index: 68°   Visibility: 4mi
Dew Point: 66°   Wind: 2mph
Humidity: 94%   Direction: 100°E
Pressure: 29.91"   Gusts: NA
Location:  23.3°S, 45.96°W
Report Text: SBSJ 270600Z 10002KT 7000 FEW018 SCT030 20/19 Q1013
Loading
Personal Weather Stations






























Interactive Weather Map New forecast layout! Learn more

10-Day Weather Forecast

Advertisements
Track Severe Weather on mobile